sensor_id;sensor_type;location;lat;lon;timestamp;P1;durP1;ratioP1;P2;durP2;ratioP2
2021;SDS011;1015;49.756;6.994;2023-08-24T00:01:22;8.57;;;7.63;;
2021;SDS011;1015;49.756;6.994;2023-08-24T00:03:49;7.40;;;6.80;;
2021;SDS011;1015;49.756;6.994;2023-08-24T00:06:18;8.60;;;7.20;;
2021;SDS011;1015;49.756;6.994;2023-08-24T00:08:45;7.73;;;6.83;;
2021;SDS011;1015;49.756;6.994;2023-08-24T00:11:12;7.30;;;6.60;;
2021;SDS011;1015;49.756;6.994;2023-08-24T00:13:40;7.63;;;6.90;;
2021;SDS011;1015;49.756;6.994;2023-08-24T00:16:11;8.80;;;7.30;;
2021;SDS011;1015;49.756;6.994;2023-08-24T00:18:38;7.43;;;6.60;;
2021;SDS011;1015;49.756;6.994;2023-08-24T00:21:05;7.33;;;6.63;;
2021;SDS011;1015;49.756;6.994;2023-08-24T00:23:34;7.20;;;6.60;;
2021;SDS011;1015;49.756;6.994;2023-08-24T00:26:01;7.07;;;6.40;;
2021;SDS011;1015;49.756;6.994;2023-08-24T00:28:28;7.53;;;6.30;;
2021;SDS011;1015;49.756;6.994;2023-08-24T00:30:55;7.70;;;6.00;;
2021;SDS011;1015;49.756;6.994;2023-08-24T00:33:22;6.37;;;5.73;;
2021;SDS011;1015;49.756;6.994;2023-08-24T00:35:49;6.30;;;5.70;;
2021;SDS011;1015;49.756;6.994;2023-08-24T00:38:16;6.57;;;5.90;;
2021;SDS011;1015;49.756;6.994;2023-08-24T00:40:45;7.80;;;6.20;;
2021;SDS011;1015;49.756;6.994;2023-08-24T00:43:13;7.17;;;5.73;;
2021;SDS011;1015;49.756;6.994;2023-08-24T00:45:40;5.83;;;5.23;;
2021;SDS011;1015;49.756;6.994;2023-08-24T00:48:07;6.77;;;6.17;;
2021;SDS011;1015;49.756;6.994;2023-08-24T00:50:34;6.80;;;6.10;;
2021;SDS011;1015;49.756;6.994;2023-08-24T00:53:01;6.93;;;6.03;;
2021;SDS011;1015;49.756;6.994;2023-08-24T00:55:28;7.20;;;6.17;;
2021;SDS011;1015;49.756;6.994;2023-08-24T00:57:57;7.87;;;7.07;;
2021;SDS011;1015;49.756;6.994;2023-08-24T01:00:24;9.30;;;6.77;;
2021;SDS011;1015;49.756;6.994;2023-08-24T01:02:51;7.40;;;5.83;;
2021;SDS011;1015;49.756;6.994;2023-08-24T01:05:18;7.13;;;6.53;;
2021;SDS011;1015;49.756;6.994;2023-08-24T01:07:45;7.53;;;6.63;;
2021;SDS011;1015;49.756;6.994;2023-08-24T01:10:12;7.30;;;6.60;;
2021;SDS011;1015;49.756;6.994;2023-08-24T01:12:42;7.10;;;6.43;;
2021;SDS011;1015;49.756;6.994;2023-08-24T01:15:14;7.33;;;6.63;;
2021;SDS011;1015;49.756;6.994;2023-08-24T01:17:43;7.10;;;6.40;;
2021;SDS011;1015;49.756;6.994;2023-08-24T01:20:12;6.63;;;6.03;;
2021;SDS011;1015;49.756;6.994;2023-08-24T01:22:41;7.37;;;6.70;;
2021;SDS011;1015;49.756;6.994;2023-08-24T01:25:12;7.37;;;6.60;;
2021;SDS011;1015;49.756;6.994;2023-08-24T01:27:41;7.40;;;6.70;;
2021;SDS011;1015;49.756;6.994;2023-08-24T01:30:09;7.07;;;6.37;;
2021;SDS011;1015;49.756;6.994;2023-08-24T01:32:36;7.10;;;6.40;;
2021;SDS011;1015;49.756;6.994;2023-08-24T01:35:04;6.87;;;6.27;;
2021;SDS011;1015;49.756;6.994;2023-08-24T01:37:31;6.67;;;6.17;;
2021;SDS011;1015;49.756;6.994;2023-08-24T01:40:00;8.47;;;6.97;;
2021;SDS011;1015;49.756;6.994;2023-08-24T01:42:34;6.50;;;5.90;;
2021;SDS011;1015;49.756;6.994;2023-08-24T01:45:04;9.67;;;6.30;;
2021;SDS011;1015;49.756;6.994;2023-08-24T01:47:33;6.50;;;6.00;;
2021;SDS011;1015;49.756;6.994;2023-08-24T01:50:00;6.77;;;6.27;;
2021;SDS011;1015;49.756;6.994;2023-08-24T01:52:28;7.53;;;6.50;;
2021;SDS011;1015;49.756;6.994;2023-08-24T01:54:56;8.67;;;6.90;;
2021;SDS011;1015;49.756;6.994;2023-08-24T01:57:23;6.63;;;6.03;;
2021;SDS011;1015;49.756;6.994;2023-08-24T01:59:50;7.23;;;5.43;;
2021;SDS011;1015;49.756;6.994;2023-08-24T02:02:18;5.47;;;5.03;;
2021;SDS011;1015;49.756;6.994;2023-08-24T02:04:45;5.20;;;4.50;;
2021;SDS011;1015;49.756;6.994;2023-08-24T02:07:13;5.10;;;4.30;;
2021;SDS011;1015;49.756;6.994;2023-08-24T02:09:40;4.40;;;4.10;;
2021;SDS011;1015;49.756;6.994;2023-08-24T02:12:07;4.23;;;3.83;;
2021;SDS011;1015;49.756;6.994;2023-08-24T02:14:34;5.00;;;3.83;;
2021;SDS011;1015;49.756;6.994;2023-08-24T02:17:01;4.50;;;3.90;;
2021;SDS011;1015;49.756;6.994;2023-08-24T02:19:30;4.10;;;3.70;;
2021;SDS011;1015;49.756;6.994;2023-08-24T02:21:57;4.50;;;3.40;;
2021;SDS011;1015;49.756;6.994;2023-08-24T02:24:24;3.93;;;3.40;;
2021;SDS011;1015;49.756;6.994;2023-08-24T02:26:51;3.90;;;3.50;;
2021;SDS011;1015;49.756;6.994;2023-08-24T02:29:18;3.90;;;3.60;;
2021;SDS011;1015;49.756;6.994;2023-08-24T02:31:46;3.50;;;3.20;;
2021;SDS011;1015;49.756;6.994;2023-08-24T02:34:13;5.93;;;3.83;;
2021;SDS011;1015;49.756;6.994;2023-08-24T02:36:41;4.47;;;3.70;;
2021;SDS011;1015;49.756;6.994;2023-08-24T02:39:08;3.60;;;3.30;;
2021;SDS011;1015;49.756;6.994;2023-08-24T02:41:35;4.23;;;3.80;;
2021;SDS011;1015;49.756;6.994;2023-08-24T02:44:02;3.60;;;3.30;;
2021;SDS011;1015;49.756;6.994;2023-08-24T02:46:29;4.90;;;3.37;;
2021;SDS011;1015;49.756;6.994;2023-08-24T02:48:56;4.57;;;4.17;;
2021;SDS011;1015;49.756;6.994;2023-08-24T02:51:23;4.50;;;3.73;;
2021;SDS011;1015;49.756;6.994;2023-08-24T02:53:52;5.70;;;4.03;;
2021;SDS011;1015;49.756;6.994;2023-08-24T02:56:19;4.60;;;3.50;;
2021;SDS011;1015;49.756;6.994;2023-08-24T02:58:46;3.87;;;3.47;;
2021;SDS011;1015;49.756;6.994;2023-08-24T03:01:13;3.93;;;3.63;;
2021;SDS011;1015;49.756;6.994;2023-08-24T03:03:40;4.17;;;3.77;;
2021;SDS011;1015;49.756;6.994;2023-08-24T03:06:07;4.07;;;3.73;;
2021;SDS011;1015;49.756;6.994;2023-08-24T03:08:34;3.83;;;3.40;;
2021;SDS011;1015;49.756;6.994;2023-08-24T03:11:03;4.07;;;3.67;;
2021;SDS011;1015;49.756;6.994;2023-08-24T03:13:30;3.77;;;3.30;;
2021;SDS011;1015;49.756;6.994;2023-08-24T03:16:02;4.27;;;3.73;;
2021;SDS011;1015;49.756;6.994;2023-08-24T03:18:29;5.23;;;3.90;;
2021;SDS011;1015;49.756;6.994;2023-08-24T03:20:56;3.90;;;3.60;;
2021;SDS011;1015;49.756;6.994;2023-08-24T03:23:23;3.50;;;3.20;;
2021;SDS011;1015;49.756;6.994;2023-08-24T03:25:50;3.70;;;3.40;;
2021;SDS011;1015;49.756;6.994;2023-08-24T03:28:19;4.17;;;3.83;;
2021;SDS011;1015;49.756;6.994;2023-08-24T03:30:47;5.07;;;3.30;;
2021;SDS011;1015;49.756;6.994;2023-08-24T03:33:14;3.80;;;3.60;;
2021;SDS011;1015;49.756;6.994;2023-08-24T03:35:41;3.87;;;3.47;;
2021;SDS011;1015;49.756;6.994;2023-08-24T03:38:08;4.30;;;3.90;;
2021;SDS011;1015;49.756;6.994;2023-08-24T03:40:35;3.87;;;3.57;;
2021;SDS011;1015;49.756;6.994;2023-08-24T03:43:03;3.77;;;3.40;;
2021;SDS011;1015;49.756;6.994;2023-08-24T03:45:31;3.93;;;3.67;;
2021;SDS011;1015;49.756;6.994;2023-08-24T03:47:59;4.20;;;3.80;;
2021;SDS011;1015;49.756;6.994;2023-08-24T03:50:26;3.73;;;3.43;;
2021;SDS011;1015;49.756;6.994;2023-08-24T03:52:53;4.33;;;3.93;;
2021;SDS011;1015;49.756;6.994;2023-08-24T03:55:21;4.40;;;3.77;;
2021;SDS011;1015;49.756;6.994;2023-08-24T03:57:48;4.83;;;4.33;;
2021;SDS011;1015;49.756;6.994;2023-08-24T04:00:16;4.53;;;4.13;;
2021;SDS011;1015;49.756;6.994;2023-08-24T04:02:44;4.80;;;4.40;;
2021;SDS011;1015;49.756;6.994;2023-08-24T04:05:12;4.70;;;4.30;;
2021;SDS011;1015;49.756;6.994;2023-08-24T04:07:40;7.30;;;4.20;;
2021;SDS011;1015;49.756;6.994;2023-08-24T04:10:07;5.07;;;4.60;;
2021;SDS011;1015;49.756;6.994;2023-08-24T04:12:34;4.70;;;4.30;;
2021;SDS011;1015;49.756;6.994;2023-08-24T04:15:02;4.20;;;3.90;;
2021;SDS011;1015;49.756;6.994;2023-08-24T04:17:29;4.40;;;4.10;;
2021;SDS011;1015;49.756;6.994;2023-08-24T04:19:58;7.87;;;4.50;;
2021;SDS011;1015;49.756;6.994;2023-08-24T04:22:25;6.70;;;4.80;;
2021;SDS011;1015;49.756;6.994;2023-08-24T04:24:52;4.67;;;3.83;;
2021;SDS011;1015;49.756;6.994;2023-08-24T04:27:19;4.50;;;4.20;;
2021;SDS011;1015;49.756;6.994;2023-08-24T04:29:47;5.27;;;4.50;;
2021;SDS011;1015;49.756;6.994;2023-08-24T04:32:14;5.70;;;4.50;;
2021;SDS011;1015;49.756;6.994;2023-08-24T04:34:41;5.63;;;5.17;;
2021;SDS011;1015;49.756;6.994;2023-08-24T04:37:09;5.73;;;5.17;;
2021;SDS011;1015;49.756;6.994;2023-08-24T04:39:37;5.40;;;4.90;;
2021;SDS011;1015;49.756;6.994;2023-08-24T04:42:04;5.07;;;4.67;;
2021;SDS011;1015;49.756;6.994;2023-08-24T04:44:32;5.60;;;5.20;;
2021;SDS011;1015;49.756;6.994;2023-08-24T04:46:59;8.27;;;5.20;;
2021;SDS011;1015;49.756;6.994;2023-08-24T04:49:26;5.97;;;5.37;;
2021;SDS011;1015;49.756;6.994;2023-08-24T04:51:53;5.70;;;5.23;;
2021;SDS011;1015;49.756;6.994;2023-08-24T04:54:22;7.13;;;5.70;;
2021;SDS011;1015;49.756;6.994;2023-08-24T04:56:49;5.70;;;5.20;;
2021;SDS011;1015;49.756;6.994;2023-08-24T04:59:16;5.50;;;5.10;;
2021;SDS011;1015;49.756;6.994;2023-08-24T05:01:43;5.70;;;5.20;;
2021;SDS011;1015;49.756;6.994;2023-08-24T05:04:10;6.60;;;5.13;;
2021;SDS011;1015;49.756;6.994;2023-08-24T05:06:37;6.60;;;5.03;;
2021;SDS011;1015;49.756;6.994;2023-08-24T05:09:04;6.03;;;5.33;;
2021;SDS011;1015;49.756;6.994;2023-08-24T05:11:33;6.60;;;5.33;;
2021;SDS011;1015;49.756;6.994;2023-08-24T05:14:00;6.47;;;5.87;;
2021;SDS011;1015;49.756;6.994;2023-08-24T05:16:27;6.87;;;6.27;;
2021;SDS011;1015;49.756;6.994;2023-08-24T05:18:54;6.50;;;6.00;;
2021;SDS011;1015;49.756;6.994;2023-08-24T05:21:21;6.70;;;6.10;;
2021;SDS011;1015;49.756;6.994;2023-08-24T05:23:48;5.80;;;5.30;;
2021;SDS011;1015;49.756;6.994;2023-08-24T05:26:15;6.80;;;6.20;;
2021;SDS011;1015;49.756;6.994;2023-08-24T05:28:48;6.87;;;6.00;;
2021;SDS011;1015;49.756;6.994;2023-08-24T05:31:15;6.77;;;6.10;;
2021;SDS011;1015;49.756;6.994;2023-08-24T05:33:43;6.80;;;6.20;;
2021;SDS011;1015;49.756;6.994;2023-08-24T05:36:10;7.53;;;6.30;;
2021;SDS011;1015;49.756;6.994;2023-08-24T05:38:37;7.00;;;6.33;;
2021;SDS011;1015;49.756;6.994;2023-08-24T05:41:09;9.00;;;6.47;;
2021;SDS011;1015;49.756;6.994;2023-08-24T05:43:37;6.00;;;5.43;;
2021;SDS011;1015;49.756;6.994;2023-08-24T05:46:05;6.23;;;5.67;;
2021;SDS011;1015;49.756;6.994;2023-08-24T05:48:32;6.30;;;5.80;;
2021;SDS011;1015;49.756;6.994;2023-08-24T05:50:59;6.00;;;5.50;;
2021;SDS011;1015;49.756;6.994;2023-08-24T05:53:26;5.90;;;5.43;;
2021;SDS011;1015;49.756;6.994;2023-08-24T05:55:57;5.80;;;5.27;;
2021;SDS011;1015;49.756;6.994;2023-08-24T05:58:24;5.80;;;5.27;;
2021;SDS011;1015;49.756;6.994;2023-08-24T06:00:55;7.00;;;5.13;;
2021;SDS011;1015;49.756;6.994;2023-08-24T06:03:23;5.60;;;5.10;;
2021;SDS011;1015;49.756;6.994;2023-08-24T06:05:50;6.53;;;5.33;;
2021;SDS011;1015;49.756;6.994;2023-08-24T06:08:18;6.50;;;5.80;;
2021;SDS011;1015;49.756;6.994;2023-08-24T06:10:45;6.40;;;5.73;;
2021;SDS011;1015;49.756;6.994;2023-08-24T06:13:12;6.50;;;5.70;;
2021;SDS011;1015;49.756;6.994;2023-08-24T06:15:39;10.13;;;6.00;;
2021;SDS011;1015;49.756;6.994;2023-08-24T06:18:06;5.97;;;5.47;;
2021;SDS011;1015;49.756;6.994;2023-08-24T06:20:35;6.47;;;5.90;;
2021;SDS011;1015;49.756;6.994;2023-08-24T06:23:02;6.20;;;5.60;;
2021;SDS011;1015;49.756;6.994;2023-08-24T06:25:29;6.03;;;5.53;;
2021;SDS011;1015;49.756;6.994;2023-08-24T06:27:57;6.30;;;5.70;;
2021;SDS011;1015;49.756;6.994;2023-08-24T06:30:25;6.90;;;6.10;;
2021;SDS011;1015;49.756;6.994;2023-08-24T06:32:52;7.73;;;7.03;;
2021;SDS011;1015;49.756;6.994;2023-08-24T06:35:19;8.87;;;8.03;;
2021;SDS011;1015;49.756;6.994;2023-08-24T06:37:47;8.00;;;7.20;;
2021;SDS011;1015;49.756;6.994;2023-08-24T06:40:14;13.97;;;7.80;;
2021;SDS011;1015;49.756;6.994;2023-08-24T06:42:42;6.63;;;6.03;;
2021;SDS011;1015;49.756;6.994;2023-08-24T06:45:09;7.83;;;7.00;;
2021;SDS011;1015;49.756;6.994;2023-08-24T06:47:36;9.30;;;8.50;;
2021;SDS011;1015;49.756;6.994;2023-08-24T06:50:04;8.57;;;7.77;;
2021;SDS011;1015;49.756;6.994;2023-08-24T06:52:31;8.27;;;7.57;;
2021;SDS011;1015;49.756;6.994;2023-08-24T06:55:00;9.20;;;8.30;;
2021;SDS011;1015;49.756;6.994;2023-08-24T06:57:27;8.80;;;8.10;;
2021;SDS011;1015;49.756;6.994;2023-08-24T06:59:54;9.00;;;8.27;;
2021;SDS011;1015;49.756;6.994;2023-08-24T07:02:21;8.50;;;7.87;;
2021;SDS011;1015;49.756;6.994;2023-08-24T07:04:48;8.70;;;8.00;;
2021;SDS011;1015;49.756;6.994;2023-08-24T07:07:15;8.60;;;7.90;;
2021;SDS011;1015;49.756;6.994;2023-08-24T07:09:42;9.40;;;8.60;;
2021;SDS011;1015;49.756;6.994;2023-08-24T07:12:11;9.97;;;9.10;;
2021;SDS011;1015;49.756;6.994;2023-08-24T07:14:38;9.30;;;8.50;;
2021;SDS011;1015;49.756;6.994;2023-08-24T07:17:05;7.90;;;7.17;;
2021;SDS011;1015;49.756;6.994;2023-08-24T07:19:32;7.93;;;7.13;;
2021;SDS011;1015;49.756;6.994;2023-08-24T07:21:59;7.60;;;6.90;;
2021;SDS011;1015;49.756;6.994;2023-08-24T07:24:26;9.33;;;7.23;;
2021;SDS011;1015;49.756;6.994;2023-08-24T07:26:54;7.77;;;7.07;;
2021;SDS011;1015;49.756;6.994;2023-08-24T07:29:25;7.30;;;6.70;;
2021;SDS011;1015;49.756;6.994;2023-08-24T07:31:52;7.00;;;6.00;;
2021;SDS011;1015;49.756;6.994;2023-08-24T07:34:19;6.37;;;5.77;;
2021;SDS011;1015;49.756;6.994;2023-08-24T07:36:47;5.67;;;5.17;;
2021;SDS011;1015;49.756;6.994;2023-08-24T07:39:14;5.53;;;5.03;;
2021;SDS011;1015;49.756;6.994;2023-08-24T07:41:41;5.27;;;4.87;;
2021;SDS011;1015;49.756;6.994;2023-08-24T07:44:08;4.93;;;4.50;;
2021;SDS011;1015;49.756;6.994;2023-08-24T07:46:38;4.47;;;4.07;;
2021;SDS011;1015;49.756;6.994;2023-08-24T07:49:05;4.60;;;4.30;;
2021;SDS011;1015;49.756;6.994;2023-08-24T07:51:32;4.53;;;4.23;;
2021;SDS011;1015;49.756;6.994;2023-08-24T07:53:59;4.80;;;4.47;;
2021;SDS011;1015;49.756;6.994;2023-08-24T07:56:27;5.63;;;4.70;;
2021;SDS011;1015;49.756;6.994;2023-08-24T07:58:54;4.53;;;4.20;;
2021;SDS011;1015;49.756;6.994;2023-08-24T08:01:21;5.07;;;4.33;;
2021;SDS011;1015;49.756;6.994;2023-08-24T08:03:49;5.10;;;3.87;;
2021;SDS011;1015;49.756;6.994;2023-08-24T08:06:16;3.90;;;3.60;;
2021;SDS011;1015;49.756;6.994;2023-08-24T08:08:43;3.70;;;3.40;;
2021;SDS011;1015;49.756;6.994;2023-08-24T08:11:11;4.30;;;4.00;;
2021;SDS011;1015;49.756;6.994;2023-08-24T08:13:38;4.63;;;3.50;;
2021;SDS011;1015;49.756;6.994;2023-08-24T08:16:06;5.87;;;4.30;;
2021;SDS011;1015;49.756;6.994;2023-08-24T08:18:33;4.13;;;3.50;;
2021;SDS011;1015;49.756;6.994;2023-08-24T08:21:06;3.30;;;2.77;;
2021;SDS011;1015;49.756;6.994;2023-08-24T08:23:35;4.23;;;3.20;;
2021;SDS011;1015;49.756;6.994;2023-08-24T08:26:02;3.90;;;3.50;;
2021;SDS011;1015;49.756;6.994;2023-08-24T08:28:29;3.47;;;3.00;;
2021;SDS011;1015;49.756;6.994;2023-08-24T08:30:58;3.80;;;2.80;;
2021;SDS011;1015;49.756;6.994;2023-08-24T08:33:25;3.33;;;3.03;;
2021;SDS011;1015;49.756;6.994;2023-08-24T08:35:52;3.67;;;3.33;;
2021;SDS011;1015;49.756;6.994;2023-08-24T08:38:21;3.17;;;2.83;;
2021;SDS011;1015;49.756;6.994;2023-08-24T08:40:51;3.03;;;2.80;;
2021;SDS011;1015;49.756;6.994;2023-08-24T08:43:18;4.40;;;3.00;;
2021;SDS011;1015;49.756;6.994;2023-08-24T08:45:45;3.27;;;2.97;;
2021;SDS011;1015;49.756;6.994;2023-08-24T08:48:12;3.13;;;2.93;;
2021;SDS011;1015;49.756;6.994;2023-08-24T08:50:40;3.27;;;2.90;;
2021;SDS011;1015;49.756;6.994;2023-08-24T08:53:07;3.90;;;2.97;;
2021;SDS011;1015;49.756;6.994;2023-08-24T08:55:35;2.90;;;2.70;;
2021;SDS011;1015;49.756;6.994;2023-08-24T08:58:02;3.70;;;3.33;;
2021;SDS011;1015;49.756;6.994;2023-08-24T09:00:29;3.30;;;3.00;;
2021;SDS011;1015;49.756;6.994;2023-08-24T09:02:58;3.63;;;3.20;;
2021;SDS011;1015;49.756;6.994;2023-08-24T09:05:25;3.30;;;3.00;;
2021;SDS011;1015;49.756;6.994;2023-08-24T09:07:53;3.43;;;3.13;;
2021;SDS011;1015;49.756;6.994;2023-08-24T09:10:21;3.70;;;3.27;;
2021;SDS011;1015;49.756;6.994;2023-08-24T09:12:50;3.50;;;3.20;;
2021;SDS011;1015;49.756;6.994;2023-08-24T09:15:23;3.60;;;3.30;;
2021;SDS011;1015;49.756;6.994;2023-08-24T09:17:51;3.93;;;3.63;;
2021;SDS011;1015;49.756;6.994;2023-08-24T09:20:18;4.07;;;3.53;;
2021;SDS011;1015;49.756;6.994;2023-08-24T09:22:45;3.77;;;3.47;;
2021;SDS011;1015;49.756;6.994;2023-08-24T09:25:12;3.90;;;3.60;;
2021;SDS011;1015;49.756;6.994;2023-08-24T09:27:39;4.00;;;3.37;;
2021;SDS011;1015;49.756;6.994;2023-08-24T09:30:09;3.77;;;3.47;;
2021;SDS011;1015;49.756;6.994;2023-08-24T09:32:36;3.87;;;3.57;;
2021;SDS011;1015;49.756;6.994;2023-08-24T09:35:04;3.93;;;3.53;;
2021;SDS011;1015;49.756;6.994;2023-08-24T09:37:32;4.50;;;3.30;;
2021;SDS011;1015;49.756;6.994;2023-08-24T09:40:03;3.10;;;2.90;;
2021;SDS011;1015;49.756;6.994;2023-08-24T09:42:36;3.90;;;3.60;;
2021;SDS011;1015;49.756;6.994;2023-08-24T09:45:05;3.57;;;3.13;;
2021;SDS011;1015;49.756;6.994;2023-08-24T09:47:36;3.50;;;3.20;;
2021;SDS011;1015;49.756;6.994;2023-08-24T09:50:03;4.23;;;3.40;;
2021;SDS011;1015;49.756;6.994;2023-08-24T09:52:31;3.60;;;3.30;;
2021;SDS011;1015;49.756;6.994;2023-08-24T09:54:58;3.50;;;3.20;;
2021;SDS011;1015;49.756;6.994;2023-08-24T09:57:29;3.90;;;3.60;;
2021;SDS011;1015;49.756;6.994;2023-08-24T09:59:56;3.50;;;3.30;;
2021;SDS011;1015;49.756;6.994;2023-08-24T10:02:24;4.20;;;3.80;;
2021;SDS011;1015;49.756;6.994;2023-08-24T10:04:55;3.90;;;3.60;;
2021;SDS011;1015;49.756;6.994;2023-08-24T10:07:23;3.97;;;3.57;;
2021;SDS011;1015;49.756;6.994;2023-08-24T10:09:52;5.57;;;3.50;;
2021;SDS011;1015;49.756;6.994;2023-08-24T10:12:24;3.60;;;3.30;;
2021;SDS011;1015;49.756;6.994;2023-08-24T10:14:56;3.30;;;3.00;;
2021;SDS011;1015;49.756;6.994;2023-08-24T10:17:24;4.23;;;3.77;;
2021;SDS011;1015;49.756;6.994;2023-08-24T10:19:51;4.00;;;3.70;;
2021;SDS011;1015;49.756;6.994;2023-08-24T10:22:20;4.40;;;4.00;;
2021;SDS011;1015;49.756;6.994;2023-08-24T10:24:47;4.40;;;3.70;;
2021;SDS011;1015;49.756;6.994;2023-08-24T10:27:14;3.50;;;3.07;;
2021;SDS011;1015;49.756;6.994;2023-08-24T10:29:42;3.60;;;3.30;;
2021;SDS011;1015;49.756;6.994;2023-08-24T10:32:09;3.50;;;3.20;;
2021;SDS011;1015;49.756;6.994;2023-08-24T10:34:36;3.37;;;3.07;;
2021;SDS011;1015;49.756;6.994;2023-08-24T10:37:07;3.80;;;3.50;;
2021;SDS011;1015;49.756;6.994;2023-08-24T10:39:37;3.83;;;3.53;;
2021;SDS011;1015;49.756;6.994;2023-08-24T10:42:04;4.07;;;3.73;;
2021;SDS011;1015;49.756;6.994;2023-08-24T10:44:34;3.90;;;3.60;;
2021;SDS011;1015;49.756;6.994;2023-08-24T10:47:11;4.30;;;3.60;;
2021;SDS011;1015;49.756;6.994;2023-08-24T10:49:39;4.70;;;3.47;;
2021;SDS011;1015;49.756;6.994;2023-08-24T10:54:55;4.13;;;3.83;;
2021;SDS011;1015;49.756;6.994;2023-08-24T10:57:23;5.30;;;4.10;;
2021;SDS011;1015;49.756;6.994;2023-08-24T10:59:59;4.07;;;3.70;;
2021;SDS011;1015;49.756;6.994;2023-08-24T11:02:26;4.47;;;4.07;;
2021;SDS011;1015;49.756;6.994;2023-08-24T11:05:03;4.83;;;4.33;;
2021;SDS011;1015;49.756;6.994;2023-08-24T11:07:30;4.70;;;4.30;;
2021;SDS011;1015;49.756;6.994;2023-08-24T11:09:59;4.90;;;4.37;;
2021;SDS011;1015;49.756;6.994;2023-08-24T11:12:26;3.80;;;3.40;;
2021;SDS011;1015;49.756;6.994;2023-08-24T11:14:54;4.10;;;3.80;;
2021;SDS011;1015;49.756;6.994;2023-08-24T11:17:24;4.97;;;4.60;;
2021;SDS011;1015;49.756;6.994;2023-08-24T11:19:51;4.50;;;4.10;;
2021;SDS011;1015;49.756;6.994;2023-08-24T11:22:19;4.70;;;4.30;;
2021;SDS011;1015;49.756;6.994;2023-08-24T11:24:47;4.60;;;4.17;;
2021;SDS011;1015;49.756;6.994;2023-08-24T11:27:15;4.67;;;4.23;;
2021;SDS011;1015;49.756;6.994;2023-08-24T11:29:42;4.37;;;4.07;;
2021;SDS011;1015;49.756;6.994;2023-08-24T11:32:09;4.67;;;4.27;;
2021;SDS011;1015;49.756;6.994;2023-08-24T11:34:36;4.47;;;4.03;;
2021;SDS011;1015;49.756;6.994;2023-08-24T11:37:04;4.60;;;4.20;;
2021;SDS011;1015;49.756;6.994;2023-08-24T11:39:31;4.70;;;4.30;;
2021;SDS011;1015;49.756;6.994;2023-08-24T11:41:59;4.40;;;4.00;;
2021;SDS011;1015;49.756;6.994;2023-08-24T11:44:27;5.23;;;4.70;;
2021;SDS011;1015;49.756;6.994;2023-08-24T11:46:55;4.60;;;4.20;;
2021;SDS011;1015;49.756;6.994;2023-08-24T11:49:23;5.60;;;5.20;;
2021;SDS011;1015;49.756;6.994;2023-08-24T11:51:50;4.50;;;4.20;;
2021;SDS011;1015;49.756;6.994;2023-08-24T11:54:18;4.83;;;4.40;;
2021;SDS011;1015;49.756;6.994;2023-08-24T11:56:46;4.80;;;4.40;;
2021;SDS011;1015;49.756;6.994;2023-08-24T11:59:13;4.73;;;4.33;;
2021;SDS011;1015;49.756;6.994;2023-08-24T12:01:42;5.80;;;4.40;;
2021;SDS011;1015;49.756;6.994;2023-08-24T12:04:09;5.00;;;4.37;;
2021;SDS011;1015;49.756;6.994;2023-08-24T12:06:37;4.97;;;4.57;;
2021;SDS011;1015;49.756;6.994;2023-08-24T12:09:05;5.13;;;4.73;;
2021;SDS011;1015;49.756;6.994;2023-08-24T12:11:34;5.63;;;5.13;;
2021;SDS011;1015;49.756;6.994;2023-08-24T12:14:02;5.93;;;5.43;;
2021;SDS011;1015;49.756;6.994;2023-08-24T12:16:30;5.00;;;4.60;;
2021;SDS011;1015;49.756;6.994;2023-08-24T12:18:59;5.67;;;5.17;;
2021;SDS011;1015;49.756;6.994;2023-08-24T12:21:28;6.23;;;5.73;;
2021;SDS011;1015;49.756;6.994;2023-08-24T12:23:56;8.30;;;7.50;;
2021;SDS011;1015;49.756;6.994;2023-08-24T12:26:23;8.77;;;8.07;;
2021;SDS011;1015;49.756;6.994;2023-08-24T12:28:50;9.47;;;8.67;;
2021;SDS011;1015;49.756;6.994;2023-08-24T12:31:18;10.00;;;9.10;;
2021;SDS011;1015;49.756;6.994;2023-08-24T12:33:45;9.40;;;8.70;;
2021;SDS011;1015;49.756;6.994;2023-08-24T12:36:13;11.97;;;11.00;;
2021;SDS011;1015;49.756;6.994;2023-08-24T12:38:40;12.23;;;10.97;;
2021;SDS011;1015;49.756;6.994;2023-08-24T12:41:09;10.80;;;9.80;;
2021;SDS011;1015;49.756;6.994;2023-08-24T12:43:37;9.50;;;8.60;;
2021;SDS011;1015;49.756;6.994;2023-08-24T12:46:04;10.63;;;9.63;;
2021;SDS011;1015;49.756;6.994;2023-08-24T12:48:31;9.90;;;8.90;;
2021;SDS011;1015;49.756;6.994;2023-08-24T12:50:58;9.07;;;8.27;;
2021;SDS011;1015;49.756;6.994;2023-08-24T12:53:26;8.37;;;7.67;;
2021;SDS011;1015;49.756;6.994;2023-08-24T12:55:53;8.30;;;7.60;;
2021;SDS011;1015;49.756;6.994;2023-08-24T12:58:20;13.83;;;8.33;;
2021;SDS011;1015;49.756;6.994;2023-08-24T13:00:47;9.57;;;8.60;;
2021;SDS011;1015;49.756;6.994;2023-08-24T13:03:14;9.87;;;8.87;;
2021;SDS011;1015;49.756;6.994;2023-08-24T13:05:41;9.30;;;8.50;;
2021;SDS011;1015;49.756;6.994;2023-08-24T13:08:08;9.40;;;7.80;;
2021;SDS011;1015;49.756;6.994;2023-08-24T13:10:37;9.10;;;8.20;;
2021;SDS011;1015;49.756;6.994;2023-08-24T13:13:04;8.10;;;7.50;;
2021;SDS011;1015;49.756;6.994;2023-08-24T13:15:31;7.37;;;6.73;;
2021;SDS011;1015;49.756;6.994;2023-08-24T13:17:58;9.13;;;7.83;;
2021;SDS011;1015;49.756;6.994;2023-08-24T13:20:25;8.53;;;7.87;;
2021;SDS011;1015;49.756;6.994;2023-08-24T13:22:52;8.40;;;7.63;;
2021;SDS011;1015;49.756;6.994;2023-08-24T13:25:19;8.77;;;6.93;;
2021;SDS011;1015;49.756;6.994;2023-08-24T13:27:48;7.27;;;6.77;;
2021;SDS011;1015;49.756;6.994;2023-08-24T13:30:15;7.63;;;6.93;;
2021;SDS011;1015;49.756;6.994;2023-08-24T13:32:42;8.07;;;7.37;;
2021;SDS011;1015;49.756;6.994;2023-08-24T13:35:09;6.10;;;5.70;;
2021;SDS011;1015;49.756;6.994;2023-08-24T13:37:36;7.30;;;6.70;;
2021;SDS011;1015;49.756;6.994;2023-08-24T13:40:04;6.50;;;5.90;;
2021;SDS011;1015;49.756;6.994;2023-08-24T13:42:32;7.00;;;6.40;;
2021;SDS011;1015;49.756;6.994;2023-08-24T13:45:01;7.10;;;6.50;;
2021;SDS011;1015;49.756;6.994;2023-08-24T13:47:28;6.57;;;5.97;;
2021;SDS011;1015;49.756;6.994;2023-08-24T13:49:55;7.10;;;6.50;;
2021;SDS011;1015;49.756;6.994;2023-08-24T13:52:22;7.60;;;6.80;;
2021;SDS011;1015;49.756;6.994;2023-08-24T13:54:49;6.70;;;6.20;;
2021;SDS011;1015;49.756;6.994;2023-08-24T13:57:16;6.30;;;5.77;;
2021;SDS011;1015;49.756;6.994;2023-08-24T13:59:43;6.50;;;6.00;;
2021;SDS011;1015;49.756;6.994;2023-08-24T14:02:12;7.23;;;6.40;;
2021;SDS011;1015;49.756;6.994;2023-08-24T14:04:39;6.43;;;5.90;;
2021;SDS011;1015;49.756;6.994;2023-08-24T14:07:06;7.00;;;6.30;;
2021;SDS011;1015;49.756;6.994;2023-08-24T14:09:34;6.93;;;6.23;;
2021;SDS011;1015;49.756;6.994;2023-08-24T14:12:01;5.87;;;5.47;;
2021;SDS011;1015;49.756;6.994;2023-08-24T14:14:28;7.20;;;5.90;;
2021;SDS011;1015;49.756;6.994;2023-08-24T14:16:55;6.50;;;5.90;;
2021;SDS011;1015;49.756;6.994;2023-08-24T14:19:24;6.57;;;6.00;;
2021;SDS011;1015;49.756;6.994;2023-08-24T14:21:52;7.53;;;6.20;;
2021;SDS011;1015;49.756;6.994;2023-08-24T14:24:19;6.67;;;6.07;;
2021;SDS011;1015;49.756;6.994;2023-08-24T14:26:46;6.20;;;5.70;;
2021;SDS011;1015;49.756;6.994;2023-08-24T14:29:13;6.60;;;5.70;;
2021;SDS011;1015;49.756;6.994;2023-08-24T14:31:40;5.60;;;5.10;;
2021;SDS011;1015;49.756;6.994;2023-08-24T14:34:07;5.73;;;4.83;;
2021;SDS011;1015;49.756;6.994;2023-08-24T14:36:36;5.70;;;5.20;;
2021;SDS011;1015;49.756;6.994;2023-08-24T14:39:03;5.80;;;5.20;;
2021;SDS011;1015;49.756;6.994;2023-08-24T14:41:30;6.30;;;5.70;;
2021;SDS011;1015;49.756;6.994;2023-08-24T14:43:57;6.33;;;5.77;;
2021;SDS011;1015;49.756;6.994;2023-08-24T14:46:24;5.70;;;5.20;;
2021;SDS011;1015;49.756;6.994;2023-08-24T14:48:51;6.27;;;5.67;;
2021;SDS011;1015;49.756;6.994;2023-08-24T14:51:18;6.20;;;5.60;;
2021;SDS011;1015;49.756;6.994;2023-08-24T15:05:41;8.50;;;7.80;;
2021;SDS011;1015;49.756;6.994;2023-08-24T15:08:08;8.50;;;7.80;;
2021;SDS011;1015;49.756;6.994;2023-08-24T15:10:36;8.17;;;7.53;;
2021;SDS011;1015;49.756;6.994;2023-08-24T15:13:03;8.03;;;7.40;;
2021;SDS011;1015;49.756;6.994;2023-08-24T15:15:30;8.10;;;7.40;;
2021;SDS011;1015;49.756;6.994;2023-08-24T15:17:57;8.63;;;7.77;;
2021;SDS011;1015;49.756;6.994;2023-08-24T15:20:24;9.23;;;8.53;;
2021;SDS011;1015;49.756;6.994;2023-08-24T15:22:53;9.37;;;8.40;;
2021;SDS011;1015;49.756;6.994;2023-08-24T15:25:20;8.73;;;8.03;;
2021;SDS011;1015;49.756;6.994;2023-08-24T15:27:47;7.80;;;7.20;;
2021;SDS011;1015;49.756;6.994;2023-08-24T15:30:14;8.67;;;7.87;;
2021;SDS011;1015;49.756;6.994;2023-08-24T15:32:41;7.63;;;6.93;;